Time;durP1;ratioP1;P1;durP2;ratioP2;P2;SDS_P1;SDS_P2;PMS_P1;PMS_P2;Temp;Humidity;BMP_temperature;BMP_pressure;BME280_temperature;BME280_humidity;BME280_pressure;Samples;Min_cycle;Max_cycle;Signal;HPM_P1;HPM_P2
2023/08/31 00:02:01;;;;;;;5.68;3.20;;;;;;;;;;7366139;19;20006;-72
2023/08/31 00:04:26;;;;;;;7.22;3.20;;;;;;;;;;7390634;19;20002;-72
2023/08/31 00:06:52;;;;;;;7.45;3.75;;;;;;;;;;7367814;19;20074;-71
2023/08/31 00:09:18;;;;;;;5.85;3.55;;;;;;;;;;7368619;19;20006;-72
2023/08/31 00:11:45;;;;;;;6.45;3.22;;;;;;;;;;7368598;19;20013;-71
2023/08/31 00:14:10;;;;;;;4.95;3.20;;;;;;;;;;7368769;19;20003;-71
2023/08/31 00:16:36;;;;;;;6.57;3.15;;;;;;;;;;7390014;19;20003;-72
2023/08/31 00:19:02;;;;;;;5.50;3.13;;;;;;;;;;7367799;19;20078;-72
2023/08/31 00:21:28;;;;;;;5.07;3.10;;;;;;;;;;7367648;19;20027;-72
2023/08/31 00:23:54;;;;;;;7.80;3.63;;;;;;;;;;7367068;19;20043;-71
2023/08/31 00:26:19;;;;;;;6.80;3.50;;;;;;;;;;7366662;19;20013;-72
2023/08/31 00:28:45;;;;;;;7.82;3.33;;;;;;;;;;7390442;19;19999;-71
2023/08/31 00:31:10;;;;;;;6.03;3.38;;;;;;;;;;7366147;19;20006;-72
2023/08/31 00:33:38;;;;;;;5.30;3.30;;;;;;;;;;7367404;19;20014;-71
2023/08/31 00:36:04;;;;;;;6.97;3.63;;;;;;;;;;7370321;19;20015;-72
2023/08/31 00:38:30;;;;;;;5.88;3.53;;;;;;;;;;7370315;19;20425;-72
2023/08/31 00:40:56;;;;;;;6.72;3.88;;;;;;;;;;7367204;19;20002;-72
2023/08/31 00:43:21;;;;;;;6.28;3.55;;;;;;;;;;7389060;19;20109;-72
2023/08/31 00:45:50;;;;;;;6.15;3.42;;;;;;;;;;7366068;19;20014;-72
2023/08/31 00:48:16;;;;;;;5.85;3.35;;;;;;;;;;7367441;19;20077;-72
2023/08/31 00:50:45;;;;;;;9.10;3.90;;;;;;;;;;7367651;19;20507;-72
2023/08/31 00:53:11;;;;;;;10.85;3.53;;;;;;;;;;7367323;19;20010;-72
2023/08/31 00:55:37;;;;;;;7.20;4.15;;;;;;;;;;7385145;19;20010;-72
2023/08/31 00:58:03;;;;;;;6.10;3.63;;;;;;;;;;7366413;19;20007;-72
2023/08/31 01:00:55;;;;;;;7.07;3.65;;;;;;;;;;7366593;19;20107;-72
2023/08/31 01:03:45;;;;;;;7.10;3.67;;;;;;;;;;7366671;19;20007;-71
2023/08/31 01:06:36;;;;;;;5.10;3.25;;;;;;;;;;7365826;19;20010;-73
2023/08/31 01:09:10;;;;;;;7.43;3.58;;;;;;;;;;7367158;19;20093;-72
2023/08/31 01:11:54;;;;;;;7.03;3.50;;;;;;;;;;7367597;19;20567;-72
2023/08/31 01:14:24;;;;;;;7.55;3.80;;;;;;;;;;7380197;19;20048;-72
2023/08/31 01:16:51;;;;;;;6.88;3.80;;;;;;;;;;7378991;19;20006;-71
2023/08/31 01:19:38;;;;;;;7.20;3.70;;;;;;;;;;7401858;19;20026;-71
2023/08/31 01:22:11;;;;;;;5.90;3.35;;;;;;;;;;7379555;19;20002;-71
2023/08/31 01:24:37;;;;;;;7.78;3.50;;;;;;;;;;7377462;19;20010;-72
2023/08/31 01:27:03;;;;;;;7.35;4.00;;;;;;;;;;7381227;19;20018;-71
2023/08/31 01:29:30;;;;;;;5.85;3.50;;;;;;;;;;7380942;19;20036;-72
2023/08/31 01:31:55;;;;;;;6.45;3.70;;;;;;;;;;7380972;19;20006;-71
2023/08/31 01:34:20;;;;;;;7.32;3.83;;;;;;;;;;7400646;19;20036;-72
2023/08/31 01:36:56;;;;;;;6.95;3.80;;;;;;;;;;7379244;19;20006;-72
2023/08/31 01:39:29;;;;;;;6.22;3.50;;;;;;;;;;7381063;19;20010;-71
2023/08/31 01:42:02;;;;;;;7.05;3.95;;;;;;;;;;7379679;19;20010;-72
2023/08/31 01:44:32;;;;;;;5.88;3.70;;;;;;;;;;7378172;19;20086;-72
2023/08/31 01:47:05;;;;;;;7.00;3.63;;;;;;;;;;7380063;19;20007;-72
2023/08/31 01:49:38;;;;;;;7.15;3.65;;;;;;;;;;7402158;19;20622;-72
2023/08/31 01:52:05;;;;;;;9.25;3.65;;;;;;;;;;7380029;19;20027;-72
2023/08/31 01:54:30;;;;;;;8.85;3.70;;;;;;;;;;7377379;19;20018;-72
2023/08/31 01:56:56;;;;;;;9.32;4.35;;;;;;;;;;7380444;19;20006;-72
2023/08/31 01:59:21;;;;;;;6.22;3.33;;;;;;;;;;7383463;19;20006;-72
2023/08/31 02:01:46;;;;;;;9.35;4.18;;;;;;;;;;7402478;19;20011;-72
2023/08/31 02:04:12;;;;;;;5.75;3.53;;;;;;;;;;7378270;19;20414;-71
2023/08/31 02:06:37;;;;;;;5.80;3.33;;;;;;;;;;7378024;19;20014;-72
2023/08/31 02:09:02;;;;;;;6.15;3.63;;;;;;;;;;7378946;19;20015;-72
2023/08/31 02:11:28;;;;;;;6.88;3.72;;;;;;;;;;7377731;19;20042;-71
2023/08/31 02:13:53;;;;;;;7.93;3.83;;;;;;;;;;7378975;19;20330;-70
2023/08/31 02:16:18;;;;;;;6.30;3.60;;;;;;;;;;7400170;19;20495;-73
2023/08/31 02:18:44;;;;;;;7.90;3.17;;;;;;;;;;7378747;19;20106;-72
2023/08/31 02:21:10;;;;;;;7.70;3.80;;;;;;;;;;7379129;19;20014;-70
2023/08/31 02:23:35;;;;;;;10.10;4.15;;;;;;;;;;7375414;19;20034;-71
2023/08/31 02:26:00;;;;;;;7.78;3.72;;;;;;;;;;7370018;19;20003;-72
2023/08/31 02:28:26;;;;;;;9.23;4.00;;;;;;;;;;7394043;19;20031;-71
2023/08/31 02:30:59;;;;;;;8.27;3.85;;;;;;;;;;7371041;19;20014;-72
2023/08/31 02:33:24;;;;;;;7.97;3.70;;;;;;;;;;7392862;19;20034;-72
2023/08/31 02:35:50;;;;;;;7.97;4.20;;;;;;;;;;7381644;19;20078;-72
2023/08/31 02:38:16;;;;;;;6.00;3.60;;;;;;;;;;7392406;19;20035;-73
2023/08/31 02:40:41;;;;;;;6.38;4.03;;;;;;;;;;7394278;19;20022;-73
2023/08/31 02:43:07;;;;;;;7.95;3.88;;;;;;;;;;7371310;19;20479;-72
2023/08/31 02:45:32;;;;;;;7.15;4.18;;;;;;;;;;7369513;19;20011;-73
2023/08/31 02:47:58;;;;;;;5.90;3.70;;;;;;;;;;7371185;19;20010;-72
2023/08/31 02:50:23;;;;;;;6.28;3.63;;;;;;;;;;7369620;19;20078;-72
2023/08/31 02:52:48;;;;;;;7.18;3.95;;;;;;;;;;7377463;19;20010;-72
2023/08/31 02:55:14;;;;;;;9.00;3.75;;;;;;;;;;7385975;19;20036;-72
2023/08/31 02:57:39;;;;;;;5.75;3.63;;;;;;;;;;7370802;19;20018;-72
2023/08/31 03:00:10;;;;;;;8.10;3.58;;;;;;;;;;7370628;19;20343;-72
2023/08/31 03:02:36;;;;;;;9.07;4.03;;;;;;;;;;7369454;19;20508;-72
2023/08/31 03:05:01;;;;;;;11.82;4.25;;;;;;;;;;7366616;19;20074;-73
2023/08/31 03:07:27;;;;;;;7.80;3.72;;;;;;;;;;7392983;19;20062;-70
2023/08/31 03:09:52;;;;;;;6.85;4.22;;;;;;;;;;7369657;19;20010;-71
2023/08/31 03:12:17;;;;;;;7.57;4.18;;;;;;;;;;7370719;19;20087;-71
2023/08/31 03:14:43;;;;;;;8.18;3.85;;;;;;;;;;7369046;19;20013;-72
2023/08/31 03:17:08;;;;;;;6.18;3.95;;;;;;;;;;7371678;19;20003;-73
2023/08/31 03:19:33;;;;;;;6.63;3.78;;;;;;;;;;7392471;19;20006;-73
2023/08/31 03:21:59;;;;;;;7.18;3.97;;;;;;;;;;7374176;19;20345;-72
2023/08/31 03:24:24;;;;;;;9.18;4.43;;;;;;;;;;7372693;19;20461;-73
2023/08/31 03:26:49;;;;;;;8.50;4.43;;;;;;;;;;7368864;19;20013;-72
2023/08/31 03:29:15;;;;;;;7.25;4.07;;;;;;;;;;7370930;19;20025;-72
2023/08/31 03:31:40;;;;;;;11.38;4.65;;;;;;;;;;7390217;19;20022;-73
2023/08/31 03:34:05;;;;;;;6.85;4.25;;;;;;;;;;7368572;19;20014;-71
2023/08/31 03:36:30;;;;;;;8.45;4.50;;;;;;;;;;7365166;19;20013;-72
2023/08/31 03:38:56;;;;;;;6.68;4.30;;;;;;;;;;7369481;19;20126;-72
2023/08/31 03:41:21;;;;;;;7.50;4.30;;;;;;;;;;7369103;19;20014;-72
2023/08/31 03:43:46;;;;;;;7.82;4.45;;;;;;;;;;7391621;19;19994;-73
2023/08/31 03:46:12;;;;;;;9.23;3.90;;;;;;;;;;7368698;19;20437;-72
2023/08/31 03:48:37;;;;;;;6.65;4.00;;;;;;;;;;7368030;19;20524;-72
2023/08/31 03:51:02;;;;;;;7.47;4.35;;;;;;;;;;7368293;19;20023;-72
2023/08/31 03:53:28;;;;;;;6.93;4.28;;;;;;;;;;7367771;19;20041;-72
2023/08/31 03:55:53;;;;;;;6.97;4.22;;;;;;;;;;7367894;19;19998;-72
2023/08/31 03:58:19;;;;;;;8.35;4.63;;;;;;;;;;7390867;19;20074;-72
2023/08/31 04:00:44;;;;;;;11.50;5.13;;;;;;;;;;7371237;19;20074;-71
2023/08/31 04:03:10;;;;;;;10.32;5.18;;;;;;;;;;7368254;19;20011;-71
2023/08/31 04:05:35;;;;;;;8.00;4.57;;;;;;;;;;7365169;19;20023;-71
2023/08/31 04:08:01;;;;;;;9.90;5.60;;;;;;;;;;7368385;19;20402;-72
2023/08/31 04:10:27;;;;;;;10.40;5.60;;;;;;;;;;7388965;19;20066;-72
2023/08/31 04:12:52;;;;;;;8.00;4.85;;;;;;;;;;7367489;19;20010;-72
2023/08/31 04:15:18;;;;;;;12.82;5.45;;;;;;;;;;7367255;19;20021;-72
2023/08/31 04:17:43;;;;;;;12.27;5.80;;;;;;;;;;7367592;19;20503;-71
2023/08/31 04:20:10;;;;;;;8.40;5.32;;;;;;;;;;7367272;19;20029;-72
2023/08/31 04:22:35;;;;;;;11.02;5.03;;;;;;;;;;7390110;19;20049;-71
2023/08/31 04:25:00;;;;;;;9.43;5.13;;;;;;;;;;7365680;19;20006;-72
2023/08/31 04:27:26;;;;;;;8.38;5.13;;;;;;;;;;7367611;19;20049;-71
2023/08/31 04:29:51;;;;;;;10.52;4.97;;;;;;;;;;7366660;19;20022;-71
2023/08/31 04:32:17;;;;;;;9.68;5.40;;;;;;;;;;7366720;19;20038;-71
2023/08/31 04:34:42;;;;;;;10.38;5.13;;;;;;;;;;7387373;19;19998;-71
2023/08/31 04:37:07;;;;;;;7.85;4.97;;;;;;;;;;7366747;19;20019;-72
2023/08/31 04:39:33;;;;;;;6.95;4.75;;;;;;;;;;7367598;19;20078;-73
2023/08/31 04:41:58;;;;;;;11.98;4.97;;;;;;;;;;7367919;19;20077;-73
2023/08/31 04:44:23;;;;;;;9.77;5.05;;;;;;;;;;7368584;19;20090;-73
2023/08/31 04:46:49;;;;;;;8.52;4.80;;;;;;;;;;7372255;19;20070;-72
2023/08/31 04:49:14;;;;;;;8.88;5.15;;;;;;;;;;7385995;19;20004;-71
2023/08/31 04:51:41;;;;;;;9.48;4.78;;;;;;;;;;7367092;19;20065;-71
2023/08/31 04:54:07;;;;;;;8.07;4.63;;;;;;;;;;7366054;19;20066;-71
2023/08/31 04:56:33;;;;;;;10.25;4.43;;;;;;;;;;7366419;19;20499;-71
2023/08/31 04:58:59;;;;;;;7.47;4.53;;;;;;;;;;7366979;19;20029;-71
2023/08/31 05:01:25;;;;;;;7.57;4.80;;;;;;;;;;7388241;19;20007;-71
2023/08/31 05:03:50;;;;;;;8.63;4.70;;;;;;;;;;7365990;19;20053;-71
2023/08/31 05:06:16;;;;;;;7.20;4.35;;;;;;;;;;7366684;19;20113;-71
2023/08/31 05:08:41;;;;;;;8.52;4.30;;;;;;;;;;7368045;19;20031;-71
2023/08/31 05:11:06;;;;;;;6.65;3.97;;;;;;;;;;7367035;19;20015;-71
2023/08/31 05:13:32;;;;;;;7.57;4.03;;;;;;;;;;7389442;19;19998;-71
2023/08/31 05:15:57;;;;;;;7.28;3.65;;;;;;;;;;7366131;19;20379;-71
2023/08/31 05:18:22;;;;;;;7.95;3.45;;;;;;;;;;7366666;19;20517;-71
2023/08/31 05:20:48;;;;;;;6.00;3.15;;;;;;;;;;7367953;19;20031;-72
2023/08/31 05:23:14;;;;;;;6.70;3.22;;;;;;;;;;7369013;19;20006;-72
2023/08/31 05:25:43;;;;;;;6.07;3.55;;;;;;;;;;7389334;19;20026;-71
2023/08/31 05:28:08;;;;;;;7.05;3.28;;;;;;;;;;7368286;19;20022;-72
2023/08/31 05:30:34;;;;;;;6.70;3.22;;;;;;;;;;7368213;19;20575;-71
2023/08/31 05:33:00;;;;;;;7.25;2.80;;;;;;;;;;7376473;19;20038;-71
2023/08/31 05:35:25;;;;;;;5.68;3.10;;;;;;;;;;7381186;19;20039;-72
2023/08/31 05:37:51;;;;;;;7.30;3.17;;;;;;;;;;7374604;19;20010;-72
2023/08/31 05:40:16;;;;;;;9.60;2.83;;;;;;;;;;7390393;19;20014;-72
2023/08/31 05:42:42;;;;;;;7.15;3.13;;;;;;;;;;7365795;19;20394;-72
2023/08/31 05:45:08;;;;;;;6.57;3.05;;;;;;;;;;7364048;19;20074;-72
2023/08/31 05:47:34;;;;;;;6.70;3.20;;;;;;;;;;7366025;19;20895;-72
2023/08/31 05:50:00;;;;;;;4.70;2.75;;;;;;;;;;7365495;19;20006;-71
2023/08/31 05:52:26;;;;;;;6.75;2.90;;;;;;;;;;7388597;19;20722;-72
2023/08/31 05:54:51;;;;;;;7.78;2.95;;;;;;;;;;7364344;19;20010;-72
2023/08/31 05:57:19;;;;;;;6.40;3.20;;;;;;;;;;7365680;19;20021;-71
2023/08/31 05:59:44;;;;;;;5.38;3.20;;;;;;;;;;7369728;19;20021;-71
2023/08/31 06:02:09;;;;;;;7.38;2.92;;;;;;;;;;7371963;19;20144;-72
2023/08/31 06:04:36;;;;;;;10.77;5.65;;;;;;;;;;7392543;19;20003;-72
2023/08/31 06:07:01;;;;;;;5.85;2.97;;;;;;;;;;7373015;19;20006;-72
2023/08/31 06:09:27;;;;;;;5.47;2.60;;;;;;;;;;7372166;19;20031;-72
2023/08/31 06:11:52;;;;;;;6.43;2.70;;;;;;;;;;7372913;19;20010;-71
2023/08/31 06:14:17;;;;;;;4.63;2.72;;;;;;;;;;7371771;19;20126;-72
2023/08/31 06:16:43;;;;;;;6.78;2.80;;;;;;;;;;7393057;19;20027;-72
2023/08/31 06:19:09;;;;;;;5.10;2.70;;;;;;;;;;7372453;19;20601;-72
2023/08/31 06:21:35;;;;;;;7.32;2.72;;;;;;;;;;7372634;19;20074;-71
2023/08/31 06:24:00;;;;;;;5.95;2.80;;;;;;;;;;7371624;19;20010;-71
2023/08/31 06:26:25;;;;;;;6.68;2.65;;;;;;;;;;7371649;19;20184;-71
2023/08/31 06:28:51;;;;;;;5.68;2.53;;;;;;;;;;7373187;19;19994;-71
2023/08/31 06:31:16;;;;;;;5.15;2.70;;;;;;;;;;7392025;19;20039;-70
2023/08/31 06:33:41;;;;;;;9.25;2.50;;;;;;;;;;7371166;19;20007;-71
2023/08/31 06:36:07;;;;;;;4.40;2.45;;;;;;;;;;7371206;19;20042;-71
2023/08/31 06:38:32;;;;;;;4.80;2.33;;;;;;;;;;7373926;19;20005;-72
2023/08/31 06:40:59;;;;;;;4.90;2.22;;;;;;;;;;7377054;19;20070;-71
2023/08/31 06:43:26;;;;;;;11.70;7.07;;;;;;;;;;7408475;19;20026;-71
2023/08/31 06:45:52;;;;;;;6.63;2.58;;;;;;;;;;7386847;19;20006;-71
2023/08/31 06:48:17;;;;;;;4.40;2.00;;;;;;;;;;7379187;19;20022;-72
2023/08/31 06:50:43;;;;;;;5.57;2.10;;;;;;;;;;7380049;19;20103;-72
2023/08/31 06:53:08;;;;;;;6.13;2.28;;;;;;;;;;7376466;19;19992;-72
2023/08/31 06:55:33;;;;;;;7.25;2.72;;;;;;;;;;7390201;19;20455;-72
2023/08/31 06:58:00;;;;;;;4.00;1.92;;;;;;;;;;7371669;19;20067;-71
2023/08/31 07:00:26;;;;;;;5.00;2.75;;;;;;;;;;7371696;19;20014;-71
2023/08/31 07:02:51;;;;;;;4.45;2.15;;;;;;;;;;7370090;19;20113;-72
2023/08/31 07:05:16;;;;;;;5.70;2.25;;;;;;;;;;7367497;19;20031;-71
2023/08/31 07:07:41;;;;;;;4.95;2.45;;;;;;;;;;7392417;19;20002;-71
2023/08/31 07:10:07;;;;;;;5.22;2.30;;;;;;;;;;7369201;19;20006;-70
2023/08/31 07:12:33;;;;;;;6.13;2.35;;;;;;;;;;7370000;19;20102;-71
2023/08/31 07:14:58;;;;;;;6.95;2.33;;;;;;;;;;7368967;19;20029;-70
2023/08/31 07:17:24;;;;;;;6.93;2.35;;;;;;;;;;7370696;19;20611;-70
2023/08/31 07:19:49;;;;;;;4.93;2.22;;;;;;;;;;7371502;19;20357;-71
2023/08/31 07:22:15;;;;;;;7.70;2.20;;;;;;;;;;7392156;19;20031;-71
2023/08/31 07:24:40;;;;;;;4.93;2.30;;;;;;;;;;7368352;19;20009;-73
2023/08/31 07:27:05;;;;;;;4.72;2.08;;;;;;;;;;7371161;19;20562;-72
2023/08/31 07:29:31;;;;;;;4.63;2.00;;;;;;;;;;7370400;19;20362;-71
2023/08/31 07:31:57;;;;;;;4.22;1.95;;;;;;;;;;7368508;19;20006;-72
2023/08/31 07:34:22;;;;;;;6.13;2.15;;;;;;;;;;7390597;19;20014;-72
2023/08/31 07:36:47;;;;;;;8.77;4.88;;;;;;;;;;7362511;19;20003;-72
2023/08/31 07:39:13;;;;;;;6.93;2.67;;;;;;;;;;7369699;19;20011;-71
2023/08/31 07:41:38;;;;;;;4.50;2.38;;;;;;;;;;7370097;19;20035;-71
2023/08/31 07:44:05;;;;;;;4.72;2.10;;;;;;;;;;7369566;19;19999;-72
2023/08/31 07:46:31;;;;;;;4.45;2.20;;;;;;;;;;7390698;19;20034;-70
2023/08/31 07:48:56;;;;;;;6.07;2.13;;;;;;;;;;7369274;19;20002;-70
2023/08/31 07:51:23;;;;;;;6.85;2.17;;;;;;;;;;7369320;19;20020;-70
2023/08/31 07:53:49;;;;;;;9.20;2.20;;;;;;;;;;7370926;19;20010;-71
2023/08/31 07:56:14;;;;;;;4.50;2.00;;;;;;;;;;7370132;19;20014;-71
2023/08/31 07:58:39;;;;;;;6.05;2.17;;;;;;;;;;7392307;19;20009;-71
2023/08/31 08:01:05;;;;;;;5.97;1.92;;;;;;;;;;7373529;19;20009;-71
2023/08/31 08:03:30;;;;;;;5.32;2.08;;;;;;;;;;7368955;19;20017;-71
2023/08/31 08:05:56;;;;;;;4.72;2.00;;;;;;;;;;7367800;19;20450;-71
2023/08/31 08:08:21;;;;;;;6.07;2.10;;;;;;;;;;7368481;19;20465;-70
2023/08/31 08:10:51;;;;;;;6.95;2.17;;;;;;;;;;7391981;19;20021;-71
2023/08/31 08:13:16;;;;;;;5.83;1.70;;;;;;;;;;7374463;19;20047;-70
2023/08/31 08:15:42;;;;;;;4.60;2.25;;;;;;;;;;7368138;19;20484;-72
2023/08/31 08:18:07;;;;;;;7.22;2.42;;;;;;;;;;7368613;19;20563;-71
2023/08/31 08:20:33;;;;;;;8.88;2.05;;;;;;;;;;7368445;19;20014;-72
2023/08/31 08:22:59;;;;;;;5.22;1.90;;;;;;;;;;7366754;19;20019;-71
2023/08/31 08:25:24;;;;;;;4.90;2.05;;;;;;;;;;7388365;19;20015;-71
2023/08/31 08:27:50;;;;;;;4.28;1.90;;;;;;;;;;7368319;19;20003;-71
2023/08/31 08:30:15;;;;;;;4.97;2.00;;;;;;;;;;7368732;19;20084;-72
2023/08/31 08:32:41;;;;;;;6.43;1.92;;;;;;;;;;7368818;19;20601;-72
2023/08/31 08:35:07;;;;;;;5.25;1.90;;;;;;;;;;7366948;19;20007;-71
2023/08/31 08:37:35;;;;;;;4.30;2.53;;;;;;;;;;7390698;19;20006;-71
2023/08/31 08:40:03;;;;;;;4.68;1.85;;;;;;;;;;7368691;19;20030;-71
2023/08/31 08:42:29;;;;;;;4.70;1.80;;;;;;;;;;7368373;19;20011;-69
2023/08/31 08:44:57;;;;;;;4.53;1.95;;;;;;;;;;7366835;19;20010;-71
2023/08/31 08:47:22;;;;;;;6.60;1.90;;;;;;;;;;7368209;19;20007;-70
2023/08/31 08:49:48;;;;;;;5.22;1.73;;;;;;;;;;7383601;19;20342;-70
2023/08/31 08:52:15;;;;;;;3.95;1.80;;;;;;;;;;7380203;19;20511;-72
2023/08/31 08:54:40;;;;;;;4.63;1.88;;;;;;;;;;7364815;19;20010;-72
2023/08/31 08:57:06;;;;;;;6.05;2.00;;;;;;;;;;7367959;19;20010;-71
2023/08/31 08:59:32;;;;;;;4.68;1.80;;;;;;;;;;7368021;19;20010;-71
2023/08/31 09:01:57;;;;;;;6.50;2.10;;;;;;;;;;7366719;19;20115;-70
2023/08/31 09:04:23;;;;;;;6.20;1.80;;;;;;;;;;7388228;19;20782;-71
2023/08/31 09:06:50;;;;;;;5.07;1.85;;;;;;;;;;7366128;19;20003;-72
2023/08/31 09:09:16;;;;;;;16.48;10.48;;;;;;;;;;7365658;19;20010;-70
2023/08/31 09:11:42;;;;;;;3.25;1.80;;;;;;;;;;7366694;19;20021;-71
2023/08/31 09:14:18;;;;;;;7.45;2.05;;;;;;;;;;7366359;19;20011;-71
2023/08/31 09:16:51;;;;;;;4.35;1.80;;;;;;;;;;7388075;19;20006;-71
2023/08/31 09:19:27;;;;;;;8.23;2.03;;;;;;;;;;7367395;19;20033;-71
2023/08/31 09:21:56;;;;;;;2.35;1.60;;;;;;;;;;7367036;19;20011;-71
2023/08/31 09:24:23;;;;;;;4.22;1.70;;;;;;;;;;7366752;19;20786;-71
2023/08/31 09:26:53;;;;;;;8.18;2.20;;;;;;;;;;7366285;19;20009;-71
2023/08/31 09:29:18;;;;;;;5.07;1.90;;;;;;;;;;7367095;19;20376;-71
2023/08/31 09:31:45;;;;;;;3.97;1.80;;;;;;;;;;7387762;19;20268;-71
2023/08/31 09:34:11;;;;;;;3.72;1.70;;;;;;;;;;7372419;19;20079;-71
2023/08/31 09:36:37;;;;;;;3.47;1.80;;;;;;;;;;7382637;19;20011;-71
2023/08/31 09:39:04;;;;;;;4.32;1.85;;;;;;;;;;7384623;19;20006;-71
2023/08/31 09:41:30;;;;;;;6.22;1.90;;;;;;;;;;7373844;19;20010;-72
2023/08/31 09:43:55;;;;;;;4.93;1.70;;;;;;;;;;7373227;19;20485;-72
2023/08/31 09:46:21;;;;;;;4.68;1.70;;;;;;;;;;7394103;19;20006;-72
2023/08/31 09:48:47;;;;;;;7.75;2.05;;;;;;;;;;7372832;19;20003;-72
2023/08/31 09:51:17;;;;;;;5.45;2.63;;;;;;;;;;7373126;19;20423;-72
2023/08/31 09:53:44;;;;;;;4.95;2.03;;;;;;;;;;7372778;19;20375;-71
2023/08/31 09:56:13;;;;;;;4.55;1.80;;;;;;;;;;7372644;19;20038;-71
2023/08/31 09:58:38;;;;;;;4.97;1.65;;;;;;;;;;7395285;19;20022;-70
2023/08/31 10:01:05;;;;;;;4.07;1.60;;;;;;;;;;7372329;19;20540;-71
2023/08/31 10:03:31;;;;;;;5.15;2.00;;;;;;;;;;7373249;19;20022;-71
2023/08/31 10:05:56;;;;;;;5.53;2.15;;;;;;;;;;7372262;19;20463;-71
2023/08/31 10:08:24;;;;;;;5.45;1.70;;;;;;;;;;7373947;19;20011;-71
2023/08/31 10:10:49;;;;;;;4.50;1.88;;;;;;;;;;7375994;19;20512;-71
2023/08/31 10:13:15;;;;;;;6.28;1.90;;;;;;;;;;7395611;19;19995;-71
2023/08/31 10:15:43;;;;;;;5.53;1.77;;;;;;;;;;7371394;19;20013;-70
2023/08/31 10:18:08;;;;;;;4.00;1.88;;;;;;;;;;7374235;19;20014;-71
2023/08/31 10:20:34;;;;;;;3.65;1.83;;;;;;;;;;7373069;19;20010;-71
2023/08/31 10:23:03;;;;;;;6.60;3.40;;;;;;;;;;7372803;19;20002;-70
2023/08/31 10:25:47;;;;;;;4.80;2.00;;;;;;;;;;7391284;19;20010;-72
2023/08/31 10:28:20;;;;;;;5.55;1.90;;;;;;;;;;7374329;19;20500;-71
2023/08/31 10:31:15;;;;;;;4.43;1.60;;;;;;;;;;7371819;19;20066;-71
2023/08/31 10:33:45;;;;;;;3.95;1.83;;;;;;;;;;7371725;19;20499;-72
2023/08/31 10:36:18;;;;;;;4.60;1.60;;;;;;;;;;7371557;19;20098;-71
2023/08/31 10:38:59;;;;;;;4.82;1.60;;;;;;;;;;7371613;19;20235;-70
2023/08/31 10:41:25;;;;;;;5.30;1.80;;;;;;;;;;7372845;19;20010;-70
2023/08/31 10:43:52;;;;;;;5.65;1.77;;;;;;;;;;7372368;19;20003;-70
2023/08/31 10:46:29;;;;;;;5.03;1.90;;;;;;;;;;7391402;19;20021;-71
2023/08/31 10:49:14;;;;;;;4.95;1.98;;;;;;;;;;7373327;19;20060;-71
2023/08/31 10:52:15;;;;;;;2.03;1.58;;;;;;;;;;7374797;19;20045;-70
2023/08/31 10:54:41;;;;;;;3.78;1.63;;;;;;;;;;7371447;19;20003;-71
2023/08/31 10:57:06;;;;;;;3.63;1.90;;;;;;;;;;7371519;19;20086;-71
2023/08/31 10:59:42;;;;;;;3.83;1.60;;;;;;;;;;7374151;19;20006;-71
2023/08/31 11:02:07;;;;;;;3.92;1.67;;;;;;;;;;7371535;19;20002;-71
2023/08/31 11:04:52;;;;;;;5.55;1.83;;;;;;;;;;7390757;19;20030;-71
2023/08/31 11:07:19;;;;;;;4.35;1.83;;;;;;;;;;7372144;19;20015;-70
2023/08/31 11:09:46;;;;;;;3.42;1.70;;;;;;;;;;7370864;19;20010;-71
2023/08/31 11:12:13;;;;;;;4.25;2.33;;;;;;;;;;7372000;19;20018;-71
2023/08/31 11:14:38;;;;;;;3.50;1.98;;;;;;;;;;7368756;19;20051;-70
2023/08/31 11:17:05;;;;;;;5.95;1.90;;;;;;;;;;7371747;19;20003;-70
2023/08/31 11:19:31;;;;;;;2.47;1.50;;;;;;;;;;7392525;19;20009;-70
2023/08/31 11:21:57;;;;;;;4.90;1.95;;;;;;;;;;7370759;19;20088;-70
2023/08/31 11:24:23;;;;;;;4.57;1.85;;;;;;;;;;7370224;19;20010;-71
2023/08/31 11:26:51;;;;;;;3.80;1.80;;;;;;;;;;7364623;19;20010;-70
2023/08/31 11:29:17;;;;;;;2.85;1.60;;;;;;;;;;7369980;19;20013;-70
2023/08/31 11:31:43;;;;;;;6.95;1.80;;;;;;;;;;7390481;19;20103;-71
2023/08/31 11:34:16;;;;;;;2.95;1.50;;;;;;;;;;7367898;19;20010;-71
2023/08/31 11:36:42;;;;;;;2.97;1.60;;;;;;;;;;7368549;19;20013;-71
2023/08/31 11:39:09;;;;;;;4.45;1.70;;;;;;;;;;7368594;19;20007;-70
2023/08/31 11:41:37;;;;;;;4.93;1.80;;;;;;;;;;7369915;19;20429;-70
2023/08/31 11:44:04;;;;;;;3.65;2.15;;;;;;;;;;7370064;19;20033;-71
2023/08/31 11:46:30;;;;;;;3.83;1.77;;;;;;;;;;7390032;19;20496;-71
2023/08/31 11:48:55;;;;;;;3.97;1.83;;;;;;;;;;7369384;19;20027;-71
2023/08/31 11:51:21;;;;;;;3.72;1.80;;;;;;;;;;7370276;19;20055;-71
2023/08/31 11:53:47;;;;;;;3.33;2.03;;;;;;;;;;7369378;19;20017;-71
2023/08/31 11:56:12;;;;;;;5.35;1.75;;;;;;;;;;7366577;19;20516;-70
2023/08/31 11:58:45;;;;;;;3.03;1.65;;;;;;;;;;7390546;19;20008;-71
2023/08/31 12:01:18;;;;;;;4.20;1.65;;;;;;;;;;7369354;19;20028;-72
2023/08/31 12:03:44;;;;;;;3.58;1.90;;;;;;;;;;7369208;19;20009;-71
2023/08/31 12:06:10;;;;;;;5.50;1.80;;;;;;;;;;7369240;19;20010;-71
2023/08/31 12:08:37;;;;;;;5.03;2.00;;;;;;;;;;7370201;19;20543;-71
2023/08/31 12:11:02;;;;;;;3.05;1.83;;;;;;;;;;7369122;19;20412;-71
2023/08/31 12:13:31;;;;;;;2.88;1.55;;;;;;;;;;7390647;19;20007;-72
2023/08/31 12:15:57;;;;;;;3.72;1.88;;;;;;;;;;7367296;19;20007;-73
2023/08/31 12:18:23;;;;;;;3.97;1.67;;;;;;;;;;7367953;19;20003;-71
2023/08/31 12:20:52;;;;;;;4.75;2.03;;;;;;;;;;7369218;19;20069;-72
2023/08/31 12:23:21;;;;;;;5.68;2.05;;;;;;;;;;7372432;19;20011;-71
2023/08/31 12:25:51;;;;;;;3.92;1.88;;;;;;;;;;7392606;19;20006;-70
2023/08/31 12:28:18;;;;;;;3.92;1.80;;;;;;;;;;7368820;19;20015;-70
2023/08/31 12:30:48;;;;;;;5.63;1.90;;;;;;;;;;7366995;19;20011;-70
2023/08/31 12:33:13;;;;;;;3.90;1.77;;;;;;;;;;7368867;19;20390;-70
2023/08/31 12:35:39;;;;;;;4.80;1.70;;;;;;;;;;7364782;19;20021;-70
2023/08/31 12:38:05;;;;;;;3.58;1.63;;;;;;;;;;7367466;19;20010;-70
2023/08/31 12:40:30;;;;;;;5.95;2.05;;;;;;;;;;7389753;19;20003;-70
2023/08/31 12:42:55;;;;;;;3.92;1.55;;;;;;;;;;7367571;19;20014;-71
2023/08/31 12:45:21;;;;;;;4.68;1.90;;;;;;;;;;7366479;19;20074;-71
2023/08/31 12:47:47;;;;;;;3.97;2.00;;;;;;;;;;7368173;19;20077;-72
2023/08/31 12:50:13;;;;;;;4.47;2.03;;;;;;;;;;7368069;19;20006;-71
2023/08/31 12:52:44;;;;;;;3.42;1.90;;;;;;;;;;7389068;19;20043;-71
2023/08/31 12:55:12;;;;;;;5.13;1.73;;;;;;;;;;7365021;19;20014;-71
2023/08/31 12:57:38;;;;;;;6.13;2.38;;;;;;;;;;7366538;19;20006;-71
2023/08/31 13:00:09;;;;;;;5.40;2.10;;;;;;;;;;7366323;19;20546;-71
2023/08/31 13:02:34;;;;;;;4.60;1.92;;;;;;;;;;7367077;19;20346;-71
2023/08/31 13:04:59;;;;;;;4.18;1.92;;;;;;;;;;7364171;19;20013;-71
2023/08/31 13:07:25;;;;;;;5.38;1.90;;;;;;;;;;7388676;19;20017;-70
2023/08/31 13:09:50;;;;;;;3.85;1.80;;;;;;;;;;7365680;19;20002;-70
2023/08/31 13:12:15;;;;;;;5.28;2.00;;;;;;;;;;7366166;19;20013;-71
2023/08/31 13:14:43;;;;;;;4.22;2.00;;;;;;;;;;7365307;19;20013;-72
2023/08/31 13:17:09;;;;;;;5.28;2.00;;;;;;;;;;7367685;19;20004;-71
2023/08/31 13:19:34;;;;;;;5.60;2.63;;;;;;;;;;7389688;19;20007;-71
2023/08/31 13:21:59;;;;;;;4.95;1.90;;;;;;;;;;7366303;19;20619;-71
2023/08/31 13:24:25;;;;;;;6.13;3.25;;;;;;;;;;7365555;19;20007;-72
2023/08/31 13:26:50;;;;;;;4.38;2.05;;;;;;;;;;7363597;19;20017;-71
2023/08/31 13:29:16;;;;;;;6.18;1.83;;;;;;;;;;7366609;19;20006;-71
2023/08/31 13:31:42;;;;;;;4.65;1.95;;;;;;;;;;7386724;19;20008;-71
2023/08/31 13:34:07;;;;;;;7.95;2.63;;;;;;;;;;7365543;19;20070;-71
2023/08/31 13:36:33;;;;;;;10.07;2.47;;;;;;;;;;7364994;19;20722;-71
2023/08/31 13:38:58;;;;;;;7.68;2.08;;;;;;;;;;7368219;19;20002;-72
2023/08/31 13:41:24;;;;;;;5.40;2.35;;;;;;;;;;7377777;19;20017;-72
2023/08/31 13:43:49;;;;;;;4.82;1.88;;;;;;;;;;7372745;19;20649;-71
2023/08/31 13:46:14;;;;;;;5.93;2.20;;;;;;;;;;7388183;19;20007;-70
2023/08/31 13:48:40;;;;;;;5.25;2.00;;;;;;;;;;7370918;19;20032;-71
2023/08/31 13:51:05;;;;;;;4.10;1.70;;;;;;;;;;7368665;19;20534;-71
2023/08/31 13:53:30;;;;;;;5.70;2.03;;;;;;;;;;7366738;19;20002;-71
2023/08/31 13:55:56;;;;;;;4.47;1.88;;;;;;;;;;7365223;19;19998;-71
2023/08/31 13:58:22;;;;;;;4.75;2.00;;;;;;;;;;7387755;19;20018;-70
2023/08/31 14:00:47;;;;;;;6.40;2.00;;;;;;;;;;7365105;19;20499;-72
2023/08/31 14:03:12;;;;;;;4.75;2.00;;;;;;;;;;7366046;19;20010;-71
2023/08/31 14:05:38;;;;;;;6.57;2.53;;;;;;;;;;7361844;19;20007;-71
2023/08/31 14:08:04;;;;;;;5.50;2.22;;;;;;;;;;7366132;19;20003;-70
2023/08/31 14:10:32;;;;;;;4.80;2.10;;;;;;;;;;7387009;19;20002;-70
2023/08/31 14:12:57;;;;;;;5.75;1.88;;;;;;;;;;7364745;19;20667;-71
2023/08/31 14:15:23;;;;;;;3.90;1.92;;;;;;;;;;7363972;19;20022;-71
2023/08/31 14:17:50;;;;;;;5.32;1.80;;;;;;;;;;7364942;19;20453;-71
2023/08/31 14:20:15;;;;;;;5.22;1.95;;;;;;;;;;7365719;19;20073;-71
2023/08/31 14:22:42;;;;;;;5.70;2.25;;;;;;;;;;7394311;19;20046;-71
2023/08/31 14:25:10;;;;;;;4.63;1.90;;;;;;;;;;7369026;19;20872;-70
2023/08/31 14:27:35;;;;;;;5.38;2.35;;;;;;;;;;7371232;19;20002;-70
2023/08/31 14:30:01;;;;;;;5.50;2.00;;;;;;;;;;7370525;19;20017;-70
2023/08/31 14:32:26;;;;;;;5.68;2.10;;;;;;;;;;7371911;19;20063;-70
2023/08/31 14:34:54;;;;;;;5.53;2.00;;;;;;;;;;7369783;19;20001;-70
2023/08/31 14:37:20;;;;;;;4.53;1.90;;;;;;;;;;7393485;19;20099;-72
2023/08/31 14:39:45;;;;;;;5.22;2.05;;;;;;;;;;7371226;19;20350;-70
2023/08/31 14:42:11;;;;;;;5.10;1.90;;;;;;;;;;7371336;19;20365;-71